Terminal Aerodrome Forecast
Issued by NWS

Home | Current Version | Previous Version | Graphics & Text | Print | Product List | Glossary On
Versions: 1 2 3 4 5 6 7 8 9 10 11 12 13 14 15 16 17 18
000
FTUS42 KMHX 301136
TAFOAJ
TAF
KOAJ 301136Z 3012/0112 19008KT P6SM VCSH SCT010 BKN020
     FM301500 20014G24KT P6SM VCSH SCT020 BKN040
     FM302100 20012G22KT P6SM SCT030 BKN150
     FM010300 21014G24KT 5SM SHRA SCT010 BKN025
     FM011000 25008KT P6SM BKN050
      AMD LTD TO CLD VIS AND WIND=

USA.gov is the U.S. government's official web portal to all federal, state and local government web resources and services.